createdAt,value
2023-02-06T00:01:39.221Z,3.00
2023-02-06T00:04:06.223Z,3.10
2023-02-06T00:06:33.712Z,3.10
2023-02-06T00:09:01.126Z,3.10
2023-02-06T00:11:28.239Z,3.20
2023-02-06T00:13:55.337Z,3.20
2023-02-06T00:16:29.244Z,3.20
2023-02-06T00:18:58.209Z,3.30
2023-02-06T00:21:27.046Z,3.30
2023-02-06T00:23:56.931Z,3.40
2023-02-06T00:26:25.363Z,3.40
2023-02-06T00:28:52.973Z,3.40
2023-02-06T00:31:20.150Z,3.50
2023-02-06T00:33:48.606Z,3.50
2023-02-06T00:36:15.530Z,3.60
2023-02-06T00:38:42.545Z,3.60
2023-02-06T00:41:09.731Z,3.60
2023-02-06T00:43:37.748Z,3.70
2023-02-06T00:46:05.285Z,3.70
2023-02-06T00:48:32.402Z,3.70
2023-02-06T00:50:59.396Z,3.70
2023-02-06T00:53:27.971Z,3.70
2023-02-06T00:55:55.132Z,3.70
2023-02-06T00:58:22.448Z,3.70
2023-02-06T01:00:49.664Z,3.70
2023-02-06T01:03:16.704Z,3.70
2023-02-06T01:05:43.697Z,3.70
2023-02-06T01:08:10.802Z,3.70
2023-02-06T01:10:40.870Z,3.80
2023-02-06T01:13:07.923Z,3.80
2023-02-06T01:15:35.222Z,3.90
2023-02-06T01:18:02.592Z,3.90
2023-02-06T01:20:29.944Z,3.90
2023-02-06T01:22:57.025Z,3.90
2023-02-06T01:25:24.040Z,4.00
2023-02-06T01:27:51.145Z,4.00
2023-02-06T01:30:18.426Z,4.00
2023-02-06T01:32:45.593Z,4.00
2023-02-06T01:35:13.267Z,4.00
2023-02-06T01:37:40.857Z,4.00
2023-02-06T01:40:14.200Z,4.00
2023-02-06T01:42:41.854Z,4.00
2023-02-06T01:45:31.118Z,3.90
2023-02-06T01:48:04.144Z,3.90
2023-02-06T01:50:34.610Z,3.90
2023-02-06T01:53:04.568Z,3.90
2023-02-06T01:55:33.511Z,3.90
2023-02-06T01:58:02.545Z,3.80
2023-02-06T02:00:29.622Z,3.70
2023-02-06T02:02:57.691Z,3.60
2023-02-06T02:05:24.813Z,3.50
2023-02-06T02:08:01.397Z,3.40
2023-02-06T02:10:30.946Z,3.30
2023-02-06T02:12:58.174Z,3.30
2023-02-06T02:15:44.208Z,3.20
2023-02-06T02:19:05.213Z,3.20
2023-02-06T02:21:53.753Z,3.20
2023-02-06T02:25:03.116Z,3.10
2023-02-06T02:28:16.699Z,3.10
2023-02-06T02:31:19.673Z,3.00
2023-02-06T02:34:38.507Z,3.00
2023-02-06T02:37:51.764Z,2.90
2023-02-06T02:40:42.520Z,2.90
2023-02-06T02:43:42.086Z,2.90
2023-02-06T02:46:17.617Z,2.90
2023-02-06T02:48:48.714Z,2.80
2023-02-06T02:51:16.724Z,2.90
2023-02-06T02:53:44.021Z,2.90
2023-02-06T02:56:22.950Z,2.90
2023-02-06T02:59:19.275Z,3.00
2023-02-06T03:01:57.016Z,2.90
2023-02-06T03:04:30.669Z,3.00
2023-02-06T03:07:28.228Z,2.90
2023-02-06T03:10:20.507Z,3.00
2023-02-06T03:13:04.295Z,3.00
2023-02-06T03:15:56.675Z,3.00
2023-02-06T03:18:50.883Z,3.00
2023-02-06T03:21:21.510Z,2.90
2023-02-06T03:23:52.778Z,2.90
2023-02-06T03:26:23.856Z,2.80
2023-02-06T03:28:57.049Z,2.70
2023-02-06T03:31:31.014Z,2.70
2023-02-06T03:34:20.776Z,2.70
2023-02-06T03:36:49.168Z,2.60
2023-02-06T03:39:16.315Z,2.50
2023-02-06T03:41:45.602Z,2.40
2023-02-06T03:44:19.926Z,2.30
2023-02-06T03:46:48.151Z,2.20
2023-02-06T03:49:17.595Z,2.10
2023-02-06T03:51:57.717Z,2.00
2023-02-06T03:54:26.831Z,1.90
2023-02-06T03:56:58.225Z,1.90
2023-02-06T03:59:25.431Z,1.80
2023-02-06T04:01:56.653Z,1.80
2023-02-06T04:04:29.109Z,1.80
2023-02-06T04:06:59.231Z,1.70
2023-02-06T04:09:26.255Z,1.60
2023-02-06T04:11:53.320Z,1.60
2023-02-06T04:14:20.372Z,1.50
2023-02-06T04:16:47.463Z,1.40
2023-02-06T04:19:14.506Z,1.40
2023-02-06T04:21:41.592Z,1.40
2023-02-06T04:24:08.677Z,1.30
2023-02-06T04:26:35.714Z,1.30
2023-02-06T04:29:02.746Z,1.20
2023-02-06T04:31:29.874Z,1.20
2023-02-06T04:33:56.944Z,1.10
2023-02-06T04:36:23.885Z,1.10
2023-02-06T04:38:51.355Z,1.10
2023-02-06T04:41:18.345Z,1.10
2023-02-06T04:43:45.365Z,1.00
2023-02-06T04:46:12.400Z,1.00
2023-02-06T04:48:39.505Z,0.90
2023-02-06T04:51:07.122Z,0.90
2023-02-06T04:53:34.176Z,0.80
2023-02-06T04:56:11.038Z,0.80
2023-02-06T04:58:39.922Z,0.70
2023-02-06T05:01:07.628Z,0.70
2023-02-06T05:03:34.712Z,0.70
2023-02-06T05:06:03.181Z,0.60
2023-02-06T05:08:30.780Z,0.60
2023-02-06T05:10:58.786Z,0.60
2023-02-06T05:13:26.092Z,0.50
2023-02-06T05:15:53.391Z,0.60
2023-02-06T05:18:20.542Z,0.50
2023-02-06T05:20:47.526Z,0.60
2023-02-06T05:23:14.634Z,0.60
2023-02-06T05:25:42.387Z,0.50
2023-02-06T05:28:10.592Z,0.60
2023-02-06T05:30:37.890Z,0.60
2023-02-06T05:33:04.911Z,0.70
2023-02-06T05:35:31.928Z,0.60
2023-02-06T05:37:59.164Z,0.60
2023-02-06T05:40:26.464Z,0.60
2023-02-06T05:42:53.452Z,0.60
2023-02-06T05:45:20.434Z,0.50
2023-02-06T05:47:47.460Z,0.50
2023-02-06T05:50:14.695Z,0.40
2023-02-06T05:52:41.680Z,0.40
2023-02-06T05:55:09.391Z,0.30
2023-02-06T05:57:36.379Z,0.30
2023-02-06T06:00:05.940Z,0.30
2023-02-06T06:02:32.928Z,0.30
2023-02-06T06:04:59.981Z,0.30
2023-02-06T06:07:27.087Z,0.30
2023-02-06T06:09:54.337Z,0.30
2023-02-06T06:12:21.312Z,0.40
2023-02-06T06:14:48.340Z,0.30
2023-02-06T06:17:15.565Z,0.20
2023-02-06T06:19:42.664Z,0.20
2023-02-06T06:22:11.493Z,0.10
2023-02-06T06:24:38.443Z,0.10
2023-02-06T06:27:05.490Z,0.00
2023-02-06T06:29:32.571Z,0.00
2023-02-06T06:31:59.670Z,0.00
2023-02-06T06:34:27.439Z,0.00
2023-02-06T06:37:00.954Z,0.00
2023-02-06T06:39:28.000Z,-0.10
2023-02-06T06:41:55.055Z,-0.30
2023-02-06T06:44:22.279Z,-0.40
2023-02-06T06:46:49.319Z,-0.40
2023-02-06T06:49:16.389Z,-0.40
2023-02-06T06:51:43.366Z,-0.40
2023-02-06T06:54:10.365Z,-0.40
2023-02-06T06:56:37.325Z,-0.40
2023-02-06T06:59:04.351Z,-0.40
2023-02-06T07:01:31.440Z,-0.40
2023-02-06T07:04:01.308Z,-0.30
2023-02-06T07:06:28.726Z,-0.30
2023-02-06T07:08:55.845Z,-0.20
2023-02-06T07:11:24.310Z,-0.20
2023-02-06T07:13:51.588Z,-0.20
2023-02-06T07:16:19.161Z,-0.20
2023-02-06T07:18:46.178Z,-0.10
2023-02-06T07:21:15.862Z,-0.10
2023-02-06T07:23:42.930Z,-0.10
2023-02-06T07:26:10.010Z,-0.20
2023-02-06T07:28:37.480Z,-0.20
2023-02-06T07:31:06.872Z,-0.20
2023-02-06T07:33:35.028Z,-0.10
2023-02-06T07:36:04.006Z,-0.20
2023-02-06T07:38:31.501Z,-0.10
2023-02-06T07:41:02.944Z,-0.20
2023-02-06T07:43:30.788Z,-0.10
2023-02-06T07:46:03.458Z,0.00
2023-02-06T07:48:31.124Z,0.10
2023-02-06T07:51:04.889Z,0.10
2023-02-06T07:53:31.939Z,0.20
2023-02-06T07:55:58.857Z,0.20
2023-02-06T07:58:26.011Z,0.20
2023-02-06T08:00:54.733Z,0.30
2023-02-06T08:03:21.997Z,0.40
2023-02-06T08:05:49.086Z,0.50
2023-02-06T08:08:16.033Z,0.50
2023-02-06T08:10:43.100Z,0.60
2023-02-06T08:13:10.038Z,0.80
2023-02-06T08:15:37.111Z,1.10
2023-02-06T08:18:04.427Z,1.60
2023-02-06T08:20:31.410Z,2.30
2023-02-06T08:22:58.709Z,2.70
2023-02-06T08:25:25.820Z,3.10
2023-02-06T08:27:56.668Z,3.30
2023-02-06T08:30:24.189Z,3.70
2023-02-06T08:32:51.369Z,4.10
2023-02-06T08:35:18.439Z,4.50
2023-02-06T08:37:45.792Z,4.90
2023-02-06T08:40:12.990Z,5.30
2023-02-06T08:42:40.001Z,5.40
2023-02-06T08:45:07.657Z,5.20
2023-02-06T08:47:34.617Z,5.00
2023-02-06T08:50:03.383Z,4.80
2023-02-06T08:52:30.729Z,4.90
2023-02-06T08:54:58.187Z,5.50
2023-02-06T08:57:25.155Z,6.00
2023-02-06T08:59:52.253Z,6.60
2023-02-06T09:02:19.318Z,7.00
2023-02-06T09:04:46.459Z,7.60
2023-02-06T09:07:14.725Z,7.80
2023-02-06T09:09:43.265Z,8.10
2023-02-06T09:12:11.976Z,8.50
2023-02-06T09:14:39.456Z,8.40
2023-02-06T09:17:06.469Z,8.40
2023-02-06T09:19:33.477Z,8.30
2023-02-06T09:22:00.975Z,8.10
2023-02-06T09:24:30.136Z,8.00
2023-02-06T09:27:00.147Z,7.80
2023-02-06T09:29:34.348Z,7.90
2023-02-06T09:32:01.514Z,8.10
2023-02-06T09:34:28.665Z,8.30
2023-02-06T09:36:56.818Z,8.50
2023-02-06T09:39:25.015Z,8.70
2023-02-06T09:41:56.944Z,9.10
2023-02-06T09:44:37.215Z,9.40
2023-02-06T09:47:29.217Z,9.60
2023-02-06T09:50:02.664Z,9.80
2023-02-06T09:53:28.408Z,9.80
2023-02-06T09:56:22.855Z,9.80
2023-02-06T09:59:04.445Z,9.90
2023-02-06T10:02:12.855Z,9.90
2023-02-06T10:04:48.934Z,9.70
2023-02-06T10:07:39.400Z,9.50
2023-02-06T10:10:17.706Z,9.30
2023-02-06T10:13:13.610Z,9.20
2023-02-06T10:15:46.531Z,9.10
2023-02-06T10:18:29.476Z,8.90
2023-02-06T10:21:06.020Z,8.70
2023-02-06T10:24:05.351Z,8.50
2023-02-06T10:26:34.828Z,8.30
2023-02-06T10:29:02.712Z,8.10
2023-02-06T10:31:45.144Z,8.10
2023-02-06T10:34:24.601Z,8.00
2023-02-06T10:37:30.784Z,7.90
2023-02-06T10:40:31.776Z,7.80
2023-02-06T10:43:23.195Z,7.70
2023-02-06T10:46:30.302Z,7.70
2023-02-06T10:49:43.888Z,7.60
2023-02-06T10:52:24.793Z,7.70
2023-02-06T10:54:56.990Z,8.00
2023-02-06T10:57:28.579Z,8.10
2023-02-06T11:00:00.927Z,8.30
2023-02-06T11:02:49.006Z,8.50
2023-02-06T11:05:26.684Z,8.90
2023-02-06T11:08:18.832Z,9.50
2023-02-06T11:10:46.655Z,10.00
2023-02-06T11:13:33.447Z,10.30
2023-02-06T11:16:13.020Z,10.20
2023-02-06T11:18:49.346Z,10.20
2023-02-06T11:22:23.387Z,10.30
2023-02-06T11:25:07.907Z,10.10
2023-02-06T11:27:36.664Z,9.80
2023-02-06T11:30:36.676Z,9.60
2023-02-06T11:33:26.721Z,9.50
2023-02-06T11:35:59.985Z,9.40
2023-02-06T11:38:30.581Z,9.40
2023-02-06T11:41:09.307Z,9.40
2023-02-06T11:43:42.273Z,9.50
2023-02-06T11:46:26.621Z,9.70
2023-02-06T11:48:56.287Z,9.70
2023-02-06T11:51:24.689Z,9.70
2023-02-06T11:54:00.906Z,10.20
2023-02-06T11:56:31.049Z,10.70
2023-02-06T11:59:16.703Z,11.00
2023-02-06T12:01:46.853Z,11.40
2023-02-06T12:04:32.492Z,11.60
2023-02-06T12:07:06.720Z,11.80
2023-02-06T12:09:33.738Z,11.90
2023-02-06T12:12:32.912Z,12.10
2023-02-06T12:15:46.102Z,12.40
2023-02-06T12:18:24.392Z,12.40
2023-02-06T12:21:06.420Z,12.40
2023-02-06T12:24:31.809Z,12.30
2023-02-06T12:27:04.461Z,12.40
2023-02-06T12:29:43.896Z,12.30
2023-02-06T12:32:25.013Z,11.80
2023-02-06T12:35:04.105Z,11.70
2023-02-06T12:37:39.749Z,11.50
2023-02-06T12:40:38.338Z,11.60
2023-02-06T12:43:15.359Z,11.50
2023-02-06T12:46:11.597Z,11.10
2023-02-06T12:48:56.955Z,11.00
2023-02-06T12:51:50.876Z,10.60
2023-02-06T12:54:30.839Z,10.30
2023-02-06T12:57:20.291Z,10.00
2023-02-06T13:00:23.101Z,10.00
2023-02-06T13:03:29.436Z,10.00
2023-02-06T13:06:25.671Z,10.30
2023-02-06T13:09:03.524Z,10.40
2023-02-06T13:11:40.648Z,10.60
2023-02-06T13:14:19.331Z,10.70
2023-02-06T13:17:11.849Z,10.80
2023-02-06T13:19:41.874Z,10.80
2023-02-06T13:22:13.069Z,11.00
2023-02-06T13:24:51.398Z,11.30
2023-02-06T13:27:19.249Z,11.40
2023-02-06T13:29:49.254Z,11.40
2023-02-06T13:32:18.467Z,11.20
2023-02-06T13:34:53.782Z,11.10
2023-02-06T13:37:44.150Z,10.90
2023-02-06T13:40:35.335Z,10.80
2023-02-06T13:43:10.796Z,10.80
2023-02-06T13:46:06.189Z,10.80
2023-02-06T13:49:07.952Z,10.90
2023-02-06T13:51:50.419Z,10.80
2023-02-06T13:54:48.374Z,10.80
2023-02-06T13:57:50.248Z,10.80
2023-02-06T14:00:31.287Z,10.70
2023-02-06T14:03:22.041Z,10.60
2023-02-06T14:06:07.848Z,10.50
2023-02-06T14:09:08.865Z,10.60
2023-02-06T14:12:32.368Z,10.60
2023-02-06T14:15:47.895Z,10.60
2023-02-06T14:18:24.294Z,10.70
2023-02-06T14:21:30.244Z,10.80
2023-02-06T14:23:57.107Z,10.80
2023-02-06T14:26:50.247Z,10.70
2023-02-06T14:29:17.098Z,10.70
2023-02-06T14:32:27.094Z,10.60
2023-02-06T14:35:14.949Z,10.60
2023-02-06T14:37:54.880Z,10.50
2023-02-06T14:40:26.666Z,10.30
2023-02-06T14:43:01.504Z,10.20
2023-02-06T14:45:42.083Z,10.20
2023-02-06T14:48:29.483Z,10.10
2023-02-06T14:50:58.281Z,9.90
2023-02-06T14:53:37.198Z,9.80
2023-02-06T14:56:17.140Z,9.60
2023-02-06T14:58:46.465Z,9.60
2023-02-06T15:01:18.485Z,9.60
2023-02-06T15:03:49.123Z,9.50
2023-02-06T15:06:38.474Z,9.50
2023-02-06T15:09:06.609Z,9.40
2023-02-06T15:11:34.677Z,9.30
2023-02-06T15:14:20.726Z,9.20
2023-02-06T15:16:50.286Z,9.10
2023-02-06T15:19:24.717Z,9.10
2023-02-06T15:22:03.899Z,9.10
2023-02-06T15:24:43.842Z,9.00
2023-02-06T15:27:33.258Z,8.90
2023-02-06T15:30:02.613Z,8.90
2023-02-06T15:32:40.461Z,8.80
2023-02-06T15:35:28.996Z,8.70
2023-02-06T15:37:56.885Z,8.60
2023-02-06T15:40:33.043Z,8.50
2023-02-06T15:43:02.715Z,8.50
2023-02-06T15:45:37.032Z,8.40
2023-02-06T15:48:41.033Z,8.30
2023-02-06T15:51:25.151Z,8.30
2023-02-06T15:54:16.208Z,8.20
2023-02-06T15:56:48.571Z,8.10
2023-02-06T15:59:20.941Z,8.10
2023-02-06T16:01:48.973Z,8.00
2023-02-06T16:04:19.769Z,7.90
2023-02-06T16:07:12.629Z,7.80
2023-02-06T16:09:50.800Z,7.80
2023-02-06T16:12:18.465Z,7.70
2023-02-06T16:15:01.084Z,7.60
2023-02-06T16:17:41.188Z,7.60
2023-02-06T16:20:41.029Z,7.50
2023-02-06T16:23:30.581Z,7.30
2023-02-06T16:26:14.986Z,7.30
2023-02-06T16:28:53.967Z,7.20
2023-02-06T16:31:21.166Z,7.00
2023-02-06T16:33:51.519Z,6.90
2023-02-06T16:36:20.911Z,6.80
2023-02-06T16:38:57.795Z,6.70
2023-02-06T16:41:38.379Z,6.60
2023-02-06T16:44:12.920Z,6.50
2023-02-06T16:46:40.162Z,6.40
2023-02-06T16:49:20.168Z,6.40
2023-02-06T16:51:49.223Z,6.40
2023-02-06T16:54:26.008Z,6.40
2023-02-06T16:56:54.971Z,6.40
2023-02-06T16:59:22.482Z,6.30
2023-02-06T17:01:49.532Z,6.20
2023-02-06T17:04:16.524Z,6.20
2023-02-06T17:06:43.523Z,6.00
2023-02-06T17:09:17.826Z,5.90
2023-02-06T17:11:45.031Z,5.80
2023-02-06T17:14:11.972Z,5.80
2023-02-06T17:16:38.906Z,5.90
2023-02-06T17:19:05.865Z,5.90
2023-02-06T17:21:33.190Z,5.90
2023-02-06T17:24:00.342Z,5.80
2023-02-06T17:26:27.575Z,5.80
2023-02-06T17:28:54.591Z,5.70
2023-02-06T17:31:21.898Z,5.50
2023-02-06T17:33:49.282Z,5.50
2023-02-06T17:36:29.677Z,5.40
2023-02-06T17:39:00.798Z,5.30
2023-02-06T17:41:28.344Z,5.30
2023-02-06T17:43:55.304Z,5.20
2023-02-06T17:46:22.429Z,5.10
2023-02-06T17:48:49.608Z,5.00
2023-02-06T17:51:16.596Z,5.00
2023-02-06T17:53:43.682Z,4.90
2023-02-06T17:56:12.994Z,4.80
2023-02-06T17:58:41.437Z,4.70
2023-02-06T18:01:19.621Z,4.70
2023-02-06T18:03:48.032Z,4.60
2023-02-06T18:06:15.442Z,4.50
2023-02-06T18:08:43.018Z,4.50
2023-02-06T18:11:19.557Z,4.50
2023-02-06T18:13:49.219Z,4.40
2023-02-06T18:16:22.866Z,4.40
2023-02-06T18:18:50.691Z,4.40
2023-02-06T18:21:19.735Z,4.40
2023-02-06T18:23:48.379Z,4.30
2023-02-06T18:26:16.203Z,4.20
2023-02-06T18:28:43.466Z,4.10
2023-02-06T18:31:33.333Z,3.90
2023-02-06T18:34:02.710Z,3.80
2023-02-06T18:36:30.274Z,3.60
2023-02-06T18:38:57.985Z,3.50
2023-02-06T18:41:43.638Z,3.40
2023-02-06T18:44:11.999Z,3.30
2023-02-06T18:46:40.203Z,3.30
2023-02-06T18:49:07.570Z,3.30
2023-02-06T18:51:34.588Z,3.20
2023-02-06T18:54:02.262Z,3.10
2023-02-06T18:56:29.276Z,3.10
2023-02-06T18:58:56.272Z,3.00
2023-02-06T19:01:25.445Z,3.00
2023-02-06T19:03:53.471Z,2.90
2023-02-06T19:06:31.840Z,2.90
2023-02-06T19:08:59.831Z,2.80
2023-02-06T19:11:27.289Z,2.80
2023-02-06T19:13:55.355Z,2.70
2023-02-06T19:16:22.375Z,2.70
2023-02-06T19:18:50.332Z,2.70
2023-02-06T19:21:22.439Z,2.60
2023-02-06T19:23:58.529Z,2.60
2023-02-06T19:26:26.151Z,2.50
2023-02-06T19:28:53.961Z,2.40
2023-02-06T19:31:25.046Z,2.40
2023-02-06T19:33:55.575Z,2.30
2023-02-06T19:36:26.160Z,2.20
2023-02-06T19:39:02.170Z,2.20
2023-02-06T19:41:32.071Z,2.10
2023-02-06T19:44:05.578Z,2.00
2023-02-06T19:46:33.326Z,2.00
2023-02-06T19:49:00.664Z,1.90
2023-02-06T19:51:34.691Z,1.80
2023-02-06T19:54:02.129Z,1.80
2023-02-06T19:56:38.281Z,1.80
2023-02-06T19:59:21.980Z,1.80
2023-02-06T20:01:58.837Z,1.80
2023-02-06T20:04:34.665Z,1.80
2023-02-06T20:07:02.384Z,1.70
2023-02-06T20:09:29.765Z,1.70
2023-02-06T20:11:57.626Z,1.70
2023-02-06T20:14:25.870Z,1.70
2023-02-06T20:16:52.998Z,1.70
2023-02-06T20:19:25.270Z,1.60
2023-02-06T20:21:56.968Z,1.60
2023-02-06T20:24:28.067Z,1.50
2023-02-06T20:26:59.302Z,1.40
2023-02-06T20:29:39.126Z,1.40
2023-02-06T20:32:07.087Z,1.40
2023-02-06T20:34:35.537Z,1.30
2023-02-06T20:37:03.360Z,1.20
2023-02-06T20:39:31.083Z,1.10
2023-02-06T20:41:58.650Z,1.00
2023-02-06T20:44:26.401Z,0.90
2023-02-06T20:46:53.418Z,0.80
2023-02-06T20:49:25.921Z,0.60
2023-02-06T20:51:53.628Z,0.60
2023-02-06T20:54:21.696Z,0.50
2023-02-06T20:56:49.205Z,0.50
2023-02-06T20:59:18.946Z,0.50
2023-02-06T21:01:46.152Z,0.50
2023-02-06T21:04:14.789Z,0.50
2023-02-06T21:06:43.314Z,0.40
2023-02-06T21:09:11.520Z,0.40
2023-02-06T21:11:45.993Z,0.40
2023-02-06T21:14:14.290Z,0.40
2023-02-06T21:16:43.721Z,0.50
2023-02-06T21:19:13.692Z,0.40
2023-02-06T21:21:43.667Z,0.40
2023-02-06T21:24:12.558Z,0.30
2023-02-06T21:26:39.585Z,0.30
2023-02-06T21:29:07.839Z,0.30
2023-02-06T21:31:38.614Z,0.20
2023-02-06T21:34:21.465Z,0.20
2023-02-06T21:36:48.865Z,0.20
2023-02-06T21:39:19.350Z,0.20
2023-02-06T21:41:47.871Z,0.10
2023-02-06T21:44:14.930Z,0.10
2023-02-06T21:46:41.907Z,0.10
2023-02-06T21:49:11.534Z,0.00
2023-02-06T21:51:38.993Z,0.00
2023-02-06T21:54:06.142Z,0.00
2023-02-06T21:56:36.458Z,0.00
2023-02-06T21:59:04.782Z,-0.10
2023-02-06T22:01:35.738Z,-0.10
2023-02-06T22:04:04.227Z,-0.10
2023-02-06T22:06:32.669Z,-0.10
2023-02-06T22:09:05.260Z,-0.20
2023-02-06T22:11:32.607Z,-0.20
2023-02-06T22:14:03.437Z,-0.20
2023-02-06T22:16:30.847Z,-0.30
2023-02-06T22:18:58.483Z,-0.30
2023-02-06T22:21:28.569Z,-0.30
2023-02-06T22:24:01.898Z,-0.30
2023-02-06T22:26:33.830Z,-0.30
2023-02-06T22:29:01.246Z,-0.30
2023-02-06T22:31:31.318Z,-0.40
2023-02-06T22:33:59.908Z,-0.40
2023-02-06T22:36:30.295Z,-0.50
2023-02-06T22:39:06.666Z,-0.50
2023-02-06T22:41:35.542Z,-0.60
2023-02-06T22:44:03.514Z,-0.50
2023-02-06T22:46:35.264Z,-0.50
2023-02-06T22:49:04.941Z,-0.50
2023-02-06T22:51:32.325Z,-0.50
2023-02-06T22:54:00.841Z,-0.50
2023-02-06T22:56:32.057Z,-0.50
2023-02-06T22:59:21.096Z,-0.50
2023-02-06T23:01:54.656Z,-0.40
2023-02-06T23:04:36.142Z,-0.40
2023-02-06T23:07:03.155Z,-0.50
2023-02-06T23:09:34.865Z,-0.50
2023-02-06T23:12:02.664Z,-0.50
2023-02-06T23:14:32.340Z,-0.50
2023-02-06T23:17:04.028Z,-0.60
2023-02-06T23:19:31.356Z,-0.60
2023-02-06T23:21:58.387Z,-0.60
2023-02-06T23:24:25.310Z,-0.60
2023-02-06T23:26:53.728Z,-0.60
2023-02-06T23:29:22.327Z,-0.60
2023-02-06T23:31:50.018Z,-0.60
2023-02-06T23:34:18.201Z,-0.70
2023-02-06T23:36:46.139Z,-0.70
2023-02-06T23:39:13.422Z,-0.80
2023-02-06T23:41:40.606Z,-0.90
2023-02-06T23:44:08.976Z,-1.00
2023-02-06T23:46:38.721Z,-1.00
2023-02-06T23:49:06.889Z,-1.10
2023-02-06T23:51:35.224Z,-1.20
2023-02-06T23:54:02.790Z,-1.20
2023-02-06T23:56:31.499Z,-1.10
2023-02-06T23:59:01.216Z,-1.10
